createdAt,value
2023-01-04T00:00:09.252Z,100.00
2023-01-04T00:02:36.971Z,100.00
2023-01-04T00:05:05.098Z,100.00
2023-01-04T00:07:32.565Z,100.00
2023-01-04T00:10:00.190Z,98.97
2023-01-04T00:12:27.937Z,100.00
2023-01-04T00:14:55.478Z,100.00
2023-01-04T00:17:22.998Z,100.00
2023-01-04T00:19:50.503Z,100.00
2023-01-04T00:22:18.110Z,100.00
2023-01-04T00:24:45.601Z,100.00
2023-01-04T00:27:13.147Z,100.00
2023-01-04T00:29:40.723Z,100.00
2023-01-04T00:32:08.496Z,100.00
2023-01-04T00:34:35.967Z,100.00
2023-01-04T00:37:03.489Z,100.00
2023-01-04T00:39:31.075Z,100.00
2023-01-04T00:42:05.353Z,100.00
2023-01-04T00:44:34.765Z,100.00
2023-01-04T00:47:04.544Z,99.92
2023-01-04T00:49:32.763Z,100.00
2023-01-04T00:52:00.570Z,100.00
2023-01-04T00:54:29.071Z,100.00
2023-01-04T00:56:56.649Z,100.00
2023-01-04T00:59:24.330Z,100.00
2023-01-04T01:01:52.772Z,100.00
2023-01-04T01:04:23.732Z,100.00
2023-01-04T01:06:52.533Z,100.00
2023-01-04T01:09:22.909Z,100.00
2023-01-04T01:11:52.358Z,100.00
2023-01-04T01:14:23.948Z,100.00
2023-01-04T01:16:57.276Z,100.00
2023-01-04T01:19:28.902Z,100.00
2023-01-04T01:21:57.901Z,100.00
2023-01-04T01:24:26.115Z,100.00
2023-01-04T01:26:53.678Z,100.00
2023-01-04T01:29:21.208Z,100.00
2023-01-04T01:31:48.870Z,100.00
2023-01-04T01:34:16.423Z,100.00
2023-01-04T01:36:44.210Z,100.00
2023-01-04T01:39:11.785Z,100.00
2023-01-04T01:41:39.398Z,100.00
2023-01-04T01:44:43.384Z,100.00
2023-01-04T01:47:26.048Z,100.00
2023-01-04T01:49:55.298Z,100.00
2023-01-04T01:52:31.003Z,100.00
2023-01-04T01:55:04.636Z,100.00
2023-01-04T01:57:37.528Z,100.00
2023-01-04T02:00:11.035Z,100.00
2023-01-04T02:02:53.635Z,100.00
2023-01-04T02:05:22.235Z,100.00
2023-01-04T02:07:51.202Z,100.00
2023-01-04T02:10:18.813Z,100.00
2023-01-04T02:12:47.491Z,100.00
2023-01-04T02:15:15.502Z,100.00
2023-01-04T02:17:54.275Z,100.00
2023-01-04T02:20:45.309Z,100.00
2023-01-04T02:24:07.800Z,100.00
2023-01-04T02:27:06.158Z,100.00
2023-01-04T02:29:41.267Z,100.00
2023-01-04T02:32:36.308Z,100.00
2023-01-04T02:35:16.261Z,99.60
2023-01-04T02:38:06.607Z,96.86
2023-01-04T02:41:04.085Z,97.97
2023-01-04T02:43:56.596Z,97.12
2023-01-04T02:46:42.901Z,99.73
2023-01-04T02:49:29.023Z,100.00
2023-01-04T02:51:56.689Z,100.00
2023-01-04T02:54:30.935Z,100.00
2023-01-04T02:57:16.536Z,100.00
2023-01-04T03:00:08.010Z,100.00
2023-01-04T03:03:23.985Z,100.00
2023-01-04T03:06:25.648Z,100.00
2023-01-04T03:09:25.186Z,100.00
2023-01-04T03:12:27.460Z,100.00
2023-01-04T03:15:07.157Z,100.00
2023-01-04T03:17:44.483Z,100.00
2023-01-04T03:20:14.477Z,100.00
2023-01-04T03:23:11.458Z,100.00
2023-01-04T03:26:08.091Z,100.00
2023-01-04T03:28:56.987Z,100.00
2023-01-04T03:31:51.750Z,100.00
2023-01-04T03:34:38.570Z,100.00
2023-01-04T03:37:18.955Z,100.00
2023-01-04T03:40:19.872Z,100.00
2023-01-04T03:43:36.097Z,100.00
2023-01-04T03:46:51.574Z,100.00
2023-01-04T03:49:26.751Z,100.00
2023-01-04T03:51:58.750Z,100.00
2023-01-04T03:54:34.901Z,100.00
2023-01-04T03:57:04.252Z,100.00
2023-01-04T03:59:32.055Z,100.00
2023-01-04T04:01:59.622Z,100.00
2023-01-04T04:04:45.665Z,100.00
2023-01-04T04:07:32.308Z,100.00
2023-01-04T04:09:59.824Z,100.00
2023-01-04T04:12:27.329Z,100.00
2023-01-04T04:14:55.146Z,100.00
2023-01-04T04:17:22.648Z,100.00
2023-01-04T04:19:50.079Z,100.00
2023-01-04T04:22:17.551Z,100.00
2023-01-04T04:24:45.086Z,100.00
2023-01-04T04:27:12.561Z,100.00
2023-01-04T04:29:39.997Z,100.00
2023-01-04T04:32:07.581Z,100.00
2023-01-04T04:37:16.691Z,100.00
2023-01-04T04:39:44.132Z,100.00
2023-01-04T04:42:11.610Z,100.00
2023-01-04T04:44:39.109Z,100.00
2023-01-04T04:47:06.600Z,100.00
2023-01-04T04:49:34.109Z,100.00
2023-01-04T04:52:01.703Z,100.00
2023-01-04T04:54:29.263Z,100.00
2023-01-04T04:56:56.760Z,100.00
2023-01-04T04:59:24.261Z,100.00
2023-01-04T05:01:52.067Z,100.00
2023-01-04T05:04:19.878Z,100.00
2023-01-04T05:06:49.976Z,100.00
2023-01-04T05:09:17.679Z,100.00
2023-01-04T05:12:03.713Z,100.00
2023-01-04T05:14:31.205Z,100.00
2023-01-04T05:17:02.131Z,100.00
2023-01-04T05:19:29.724Z,100.00
2023-01-04T05:21:57.359Z,100.00
2023-01-04T05:24:24.923Z,100.00
2023-01-04T05:26:53.051Z,100.00
2023-01-04T05:29:39.057Z,100.00
2023-01-04T05:32:06.697Z,100.00
2023-01-04T05:34:34.155Z,100.00
2023-01-04T05:37:04.495Z,100.00
2023-01-04T05:39:32.061Z,100.00
2023-01-04T05:42:19.827Z,100.00
2023-01-04T05:44:47.377Z,100.00
2023-01-04T05:47:17.631Z,100.00
2023-01-04T05:49:45.401Z,100.00
2023-01-04T05:52:12.955Z,100.00
2023-01-04T05:54:40.570Z,100.00
2023-01-04T05:57:08.884Z,100.00
2023-01-04T05:59:41.507Z,100.00
2023-01-04T06:02:19.668Z,100.00
2023-01-04T06:04:51.491Z,100.00
2023-01-04T06:07:25.410Z,100.00
2023-01-04T06:09:53.642Z,100.00
2023-01-04T06:12:21.172Z,100.00
2023-01-04T06:14:48.724Z,100.00
2023-01-04T06:17:16.236Z,100.00
2023-01-04T06:19:43.977Z,100.00
2023-01-04T06:22:11.657Z,100.00
2023-01-04T06:24:39.188Z,100.00
2023-01-04T06:27:06.629Z,100.00
2023-01-04T06:29:34.256Z,100.00
2023-01-04T06:32:01.909Z,100.00
2023-01-04T06:34:31.350Z,100.00
2023-01-04T06:36:59.694Z,100.00
2023-01-04T06:39:27.290Z,100.00
2023-01-04T06:41:56.997Z,100.00
2023-01-04T06:44:29.520Z,100.00
2023-01-04T06:46:57.121Z,100.00
2023-01-04T06:49:24.519Z,100.00
2023-01-04T06:51:52.030Z,100.00
2023-01-04T06:54:19.461Z,100.00
2023-01-04T06:56:46.871Z,100.00
2023-01-04T06:59:15.681Z,100.00
2023-01-04T07:01:43.372Z,100.00
2023-01-04T07:04:19.754Z,100.00
2023-01-04T07:06:50.871Z,100.00
2023-01-04T07:09:19.124Z,100.00
2023-01-04T07:11:46.666Z,100.00
2023-01-04T07:14:14.094Z,100.00
2023-01-04T07:16:41.585Z,100.00
2023-01-04T07:19:09.840Z,100.00
2023-01-04T07:21:37.297Z,100.00
2023-01-04T07:24:04.900Z,100.00
2023-01-04T07:26:32.374Z,100.00
2023-01-04T07:29:14.777Z,100.00
2023-01-04T07:31:44.585Z,98.30
2023-01-04T07:34:12.992Z,97.34
2023-01-04T07:36:40.716Z,97.73
2023-01-04T07:39:11.167Z,97.13
2023-01-04T07:41:42.579Z,96.64
2023-01-04T07:44:12.457Z,96.02
2023-01-04T07:46:41.272Z,96.24
2023-01-04T07:49:17.769Z,95.57
2023-01-04T07:51:48.061Z,94.36
2023-01-04T07:54:17.480Z,93.91
2023-01-04T07:56:47.196Z,92.56
2023-01-04T07:59:17.185Z,91.09
2023-01-04T08:01:45.528Z,91.43
2023-01-04T08:04:15.018Z,91.72
2023-01-04T08:06:44.168Z,91.89
2023-01-04T08:09:12.792Z,90.33
2023-01-04T08:11:40.892Z,88.96
2023-01-04T08:14:10.809Z,87.53
2023-01-04T08:16:41.278Z,87.72
2023-01-04T08:19:17.417Z,86.46
2023-01-04T08:21:45.792Z,85.57
2023-01-04T08:24:19.202Z,85.09
2023-01-04T08:26:48.129Z,85.09
2023-01-04T08:29:16.039Z,84.81
2023-01-04T08:31:44.978Z,83.01
2023-01-04T08:34:12.544Z,83.11
2023-01-04T08:36:51.444Z,83.40
2023-01-04T08:39:19.372Z,82.36
2023-01-04T08:42:00.412Z,79.62
2023-01-04T08:44:35.036Z,79.34
2023-01-04T08:47:03.472Z,77.74
2023-01-04T08:49:31.235Z,77.88
2023-01-04T08:51:59.157Z,76.41
2023-01-04T08:54:26.818Z,75.02
2023-01-04T08:56:54.330Z,75.39
2023-01-04T08:59:24.479Z,74.39
2023-01-04T09:01:52.197Z,74.24
2023-01-04T09:04:20.021Z,72.47
2023-01-04T09:06:47.548Z,71.99
2023-01-04T09:09:16.446Z,70.15
2023-01-04T09:11:43.972Z,68.31
2023-01-04T09:14:13.820Z,68.60
2023-01-04T09:16:41.772Z,66.38
2023-01-04T09:19:09.294Z,66.31
2023-01-04T09:21:37.100Z,64.66
2023-01-04T09:24:04.985Z,62.59
2023-01-04T09:26:32.488Z,61.12
2023-01-04T09:28:59.974Z,60.25
2023-01-04T09:31:29.564Z,57.77
2023-01-04T09:34:15.938Z,58.15
2023-01-04T09:36:45.837Z,58.76
2023-01-04T09:39:21.864Z,59.40
2023-01-04T09:42:04.034Z,59.16
2023-01-04T09:47:50.082Z,57.69
2023-01-04T09:50:26.105Z,57.26
2023-01-04T09:53:43.085Z,55.64
2023-01-04T09:56:28.932Z,55.50
2023-01-04T09:58:58.587Z,57.83
2023-01-04T10:01:58.095Z,57.99
2023-01-04T10:04:48.504Z,60.94
2023-01-04T10:07:32.613Z,63.19
2023-01-04T10:10:01.614Z,64.84
2023-01-04T10:13:10.671Z,67.51
2023-01-04T10:16:44.070Z,66.68
2023-01-04T10:23:08.523Z,66.05
2023-01-04T10:26:12.314Z,67.56
2023-01-04T10:29:28.592Z,67.78
2023-01-04T10:32:02.832Z,68.52
2023-01-04T10:34:38.139Z,69.23
2023-01-04T10:37:34.200Z,68.36
2023-01-04T10:40:02.331Z,65.88
2023-01-04T10:42:48.646Z,65.31
2023-01-04T10:46:02.391Z,64.86
2023-01-04T10:48:52.341Z,66.01
2023-01-04T10:51:54.297Z,63.68
2023-01-04T10:54:50.679Z,60.68
2023-01-04T10:57:32.207Z,60.97
2023-01-04T11:00:32.732Z,59.35
2023-01-04T11:03:09.448Z,60.26
2023-01-04T11:06:03.202Z,56.43
2023-01-04T11:09:03.623Z,53.90
2023-01-04T11:11:37.853Z,51.05
2023-01-04T11:14:05.543Z,49.59
2023-01-04T11:16:33.210Z,46.51
2023-01-04T11:19:00.975Z,45.32
2023-01-04T11:21:34.647Z,45.13
2023-01-04T11:24:31.533Z,44.09
2023-01-04T11:26:56.243Z,46.25
2023-01-04T11:29:30.630Z,48.66
2023-01-04T11:32:07.115Z,50.10
2023-01-04T11:35:00.754Z,51.08
2023-01-04T11:37:33.804Z,51.31
2023-01-04T11:40:24.323Z,48.53
2023-01-04T11:43:17.775Z,48.93
2023-01-04T11:45:57.439Z,49.10
2023-01-04T11:48:35.840Z,47.55
2023-01-04T11:51:04.087Z,46.12
2023-01-04T11:53:38.826Z,45.13
2023-01-04T11:56:14.240Z,44.88
2023-01-04T11:58:44.140Z,44.39
2023-01-04T12:01:25.654Z,43.94
2023-01-04T12:03:53.225Z,45.74
2023-01-04T12:06:25.774Z,46.35
2023-01-04T12:08:53.393Z,46.34
2023-01-04T12:11:36.554Z,46.00
2023-01-04T12:14:09.770Z,45.42
2023-01-04T12:17:13.984Z,44.09
2023-01-04T12:19:43.763Z,43.92
2023-01-04T12:22:35.596Z,47.61
2023-01-04T12:25:35.653Z,47.24
2023-01-04T12:28:03.258Z,48.76
2023-01-04T12:30:46.344Z,49.71
2023-01-04T12:33:34.097Z,46.44
2023-01-04T12:36:12.142Z,45.70
2023-01-04T12:39:29.148Z,46.92
2023-01-04T12:42:03.642Z,47.26
2023-01-04T12:44:37.338Z,47.62
2023-01-04T12:47:49.415Z,47.47
2023-01-04T12:50:27.562Z,47.54
2023-01-04T12:53:19.877Z,46.21
2023-01-04T12:55:53.525Z,45.17
2023-01-04T12:58:58.182Z,44.82
2023-01-04T13:01:29.300Z,45.36
2023-01-04T13:04:21.716Z,46.32
2023-01-04T13:06:52.282Z,47.87
2023-01-04T13:09:24.903Z,47.96
2023-01-04T13:12:18.885Z,48.34
2023-01-04T13:14:55.246Z,48.17
2023-01-04T13:17:26.959Z,46.29
2023-01-04T13:19:55.362Z,46.63
2023-01-04T13:22:32.346Z,45.74
2023-01-04T13:25:04.787Z,45.20
2023-01-04T13:27:33.540Z,44.25
2023-01-04T13:30:03.404Z,45.23
2023-01-04T13:32:59.510Z,44.42
2023-01-04T13:35:24.117Z,44.61
2023-01-04T13:37:52.697Z,44.44
2023-01-04T13:40:24.520Z,45.53
2023-01-04T13:43:16.880Z,46.02
2023-01-04T13:46:05.481Z,45.74
2023-01-04T13:48:40.111Z,46.48
2023-01-04T13:51:32.101Z,46.56
2023-01-04T13:54:21.199Z,46.63
2023-01-04T13:56:55.197Z,46.95
2023-01-04T13:59:23.416Z,47.11
2023-01-04T14:01:51.676Z,48.16
2023-01-04T14:04:28.683Z,49.25
2023-01-04T14:06:59.685Z,51.21
2023-01-04T14:09:37.210Z,52.21
2023-01-04T14:12:20.165Z,53.28
2023-01-04T14:15:20.923Z,53.71
2023-01-04T14:17:55.720Z,52.67
2023-01-04T14:20:23.330Z,52.01
2023-01-04T14:22:56.340Z,52.52
2023-01-04T14:25:37.082Z,53.30
2023-01-04T14:28:20.107Z,52.89
2023-01-04T14:31:08.573Z,53.37
2023-01-04T14:33:41.855Z,54.22
2023-01-04T14:36:32.475Z,55.42
2023-01-04T14:39:06.504Z,58.08
2023-01-04T14:41:43.896Z,60.12
2023-01-04T14:44:21.643Z,63.29
2023-01-04T14:46:52.991Z,64.57
2023-01-04T14:49:22.225Z,65.78
2023-01-04T14:51:54.693Z,66.69
2023-01-04T14:54:27.443Z,68.17
2023-01-04T14:56:57.080Z,69.09
2023-01-04T14:59:26.657Z,69.86
2023-01-04T15:01:56.941Z,70.44
2023-01-04T15:04:26.627Z,71.63
2023-01-04T15:07:00.997Z,72.86
2023-01-04T15:09:30.290Z,73.44
2023-01-04T15:11:59.295Z,74.35
2023-01-04T15:14:26.903Z,74.76
2023-01-04T15:16:57.644Z,75.12
2023-01-04T15:19:25.209Z,75.69
2023-01-04T15:21:52.773Z,75.94
2023-01-04T15:24:20.929Z,76.85
2023-01-04T15:26:49.216Z,77.29
2023-01-04T15:29:16.744Z,78.13
2023-01-04T15:31:44.746Z,79.04
2023-01-04T15:34:16.287Z,79.19
2023-01-04T15:36:44.772Z,79.55
2023-01-04T15:39:15.085Z,79.54
2023-01-04T15:42:01.283Z,79.79
2023-01-04T15:44:32.071Z,80.67
2023-01-04T15:47:05.781Z,80.27
2023-01-04T15:49:33.300Z,81.07
2023-01-04T15:52:01.439Z,81.66
2023-01-04T15:54:29.411Z,81.55
2023-01-04T15:56:57.852Z,81.57
2023-01-04T15:59:25.917Z,82.01
2023-01-04T16:01:54.741Z,81.39
2023-01-04T16:04:22.730Z,80.87
2023-01-04T16:06:50.770Z,80.55
2023-01-04T16:09:18.691Z,81.65
2023-01-04T16:12:04.660Z,79.38
2023-01-04T16:14:32.635Z,80.56
2023-01-04T16:17:05.591Z,81.66
2023-01-04T16:19:34.338Z,81.47
2023-01-04T16:22:02.025Z,81.90
2023-01-04T16:25:08.885Z,82.19
2023-01-04T16:27:20.227Z,83.29
2023-01-04T16:29:52.485Z,83.63
2023-01-04T16:32:20.902Z,83.60
2023-01-04T16:34:51.019Z,83.49
2023-01-04T16:37:20.988Z,83.42
2023-01-04T16:40:08.209Z,83.07
2023-01-04T16:42:37.766Z,83.27
2023-01-04T16:45:07.727Z,83.07
2023-01-04T16:47:43.373Z,83.42
2023-01-04T16:50:15.275Z,83.70
2023-01-04T16:52:42.879Z,82.80
2023-01-04T16:55:11.267Z,81.73
2023-01-04T16:57:40.613Z,82.13
2023-01-04T17:00:10.064Z,82.17
2023-01-04T17:02:37.717Z,83.09
2023-01-04T17:05:08.081Z,83.62
2023-01-04T17:07:37.213Z,84.09
2023-01-04T17:10:05.967Z,84.59
2023-01-04T17:12:47.213Z,84.99
2023-01-04T17:18:04.845Z,85.74
2023-01-04T17:20:33.193Z,85.97
2023-01-04T17:23:00.776Z,87.21
2023-01-04T17:25:31.646Z,87.81
2023-01-04T17:27:59.251Z,88.87
2023-01-04T17:30:26.760Z,88.91
2023-01-04T17:32:54.393Z,89.57
2023-01-04T17:35:23.665Z,89.68
2023-01-04T17:37:55.628Z,88.85
2023-01-04T17:40:27.096Z,88.50
2023-01-04T17:42:54.713Z,88.68
2023-01-04T17:45:22.981Z,87.85
2023-01-04T17:47:51.657Z,88.03
2023-01-04T17:50:20.648Z,87.54
2023-01-04T17:52:52.801Z,87.53
2023-01-04T17:55:21.482Z,87.68
2023-01-04T17:57:49.196Z,87.42
2023-01-04T18:00:17.279Z,87.27
2023-01-04T18:02:45.963Z,86.51
2023-01-04T18:05:13.579Z,87.25
2023-01-04T18:07:41.273Z,86.85
2023-01-04T18:10:20.586Z,87.00
2023-01-04T18:12:48.894Z,86.72
2023-01-04T18:15:17.812Z,86.52
2023-01-04T18:17:48.108Z,86.63
2023-01-04T18:20:24.612Z,86.12
2023-01-04T18:22:54.531Z,86.48
2023-01-04T18:25:22.070Z,86.68
2023-01-04T18:27:50.692Z,87.21
2023-01-04T18:30:19.368Z,86.28
2023-01-04T18:32:48.875Z,86.72
2023-01-04T18:35:17.174Z,87.53
2023-01-04T18:37:45.898Z,88.44
2023-01-04T18:40:16.158Z,89.15
2023-01-04T18:42:50.229Z,90.25
2023-01-04T18:45:20.348Z,90.83
2023-01-04T18:47:48.552Z,90.59
2023-01-04T18:50:19.294Z,90.74
2023-01-04T18:52:47.912Z,91.00
2023-01-04T18:55:20.510Z,91.76
2023-01-04T18:57:51.169Z,93.44
2023-01-04T19:00:23.454Z,93.78
2023-01-04T19:02:53.803Z,93.39
2023-01-04T19:05:24.402Z,92.96
2023-01-04T19:07:56.640Z,93.27
2023-01-04T19:10:25.335Z,92.38
2023-01-04T19:12:52.862Z,90.96
2023-01-04T19:15:20.555Z,89.97
2023-01-04T19:17:48.467Z,89.93
2023-01-04T19:20:16.494Z,89.20
2023-01-04T19:22:44.012Z,88.54
2023-01-04T19:25:11.529Z,88.53
2023-01-04T19:27:40.228Z,88.23
2023-01-04T19:30:09.686Z,88.03
2023-01-04T19:32:37.258Z,86.72
2023-01-04T19:35:05.518Z,87.17
2023-01-04T19:37:34.515Z,87.33
2023-01-04T19:40:02.201Z,89.08
2023-01-04T19:42:30.520Z,90.12
2023-01-04T19:44:58.166Z,90.56
2023-01-04T19:47:25.698Z,91.56
2023-01-04T19:49:53.245Z,91.69
2023-01-04T19:52:20.852Z,91.86
2023-01-04T19:54:48.389Z,92.23
2023-01-04T19:57:15.957Z,92.43
2023-01-04T19:59:44.587Z,92.29
2023-01-04T20:02:36.157Z,91.82
2023-01-04T20:05:04.109Z,92.05
2023-01-04T20:07:33.649Z,92.37
2023-01-04T20:10:01.130Z,92.05
2023-01-04T20:12:28.778Z,92.42
2023-01-04T20:14:56.197Z,93.50
2023-01-04T20:17:27.534Z,92.44
2023-01-04T20:19:55.372Z,93.08
2023-01-04T20:22:22.975Z,93.75
2023-01-04T20:24:51.674Z,94.12
2023-01-04T20:27:29.126Z,94.71
2023-01-04T20:29:58.251Z,94.74
2023-01-04T20:32:26.410Z,94.09
2023-01-04T20:34:55.727Z,93.99
2023-01-04T20:37:25.846Z,94.69
2023-01-04T20:39:53.420Z,94.94
2023-01-04T20:42:40.735Z,95.80
2023-01-04T20:45:09.977Z,96.00
2023-01-04T20:47:38.675Z,95.41
2023-01-04T20:50:12.889Z,95.06
2023-01-04T20:52:40.438Z,95.73
2023-01-04T20:55:13.889Z,96.41
2023-01-04T20:57:45.428Z,95.59
2023-01-04T21:00:14.515Z,95.70
2023-01-04T21:02:42.671Z,96.26
2023-01-04T21:05:13.199Z,94.74
2023-01-04T21:07:41.625Z,95.25
2023-01-04T21:10:12.841Z,95.41
2023-01-04T21:12:41.725Z,94.96
2023-01-04T21:15:11.916Z,94.95
2023-01-04T21:17:39.636Z,95.25
2023-01-04T21:20:09.642Z,96.17
2023-01-04T21:22:40.472Z,96.02
2023-01-04T21:25:09.972Z,95.75
2023-01-04T21:27:40.000Z,96.13
2023-01-04T21:30:08.591Z,97.41
2023-01-04T21:32:36.163Z,97.70
2023-01-04T21:35:04.181Z,97.43
2023-01-04T21:37:32.367Z,97.44
2023-01-04T21:40:01.434Z,96.99
2023-01-04T21:42:31.751Z,96.88
2023-01-04T21:45:02.029Z,97.74
2023-01-04T21:47:33.834Z,97.99
2023-01-04T21:50:01.322Z,97.64
2023-01-04T21:52:28.828Z,96.30
2023-01-04T21:54:56.412Z,96.31
2023-01-04T21:57:23.989Z,95.99
2023-01-04T21:59:51.990Z,95.98
2023-01-04T22:02:20.848Z,95.73
2023-01-04T22:04:48.842Z,96.12
2023-01-04T22:07:16.383Z,95.63
2023-01-04T22:09:43.901Z,95.33
2023-01-04T22:12:11.878Z,95.25
2023-01-04T22:14:40.424Z,95.04
2023-01-04T22:17:07.972Z,95.47
2023-01-04T22:19:35.646Z,95.01
2023-01-04T22:22:03.184Z,95.21
2023-01-04T22:24:37.216Z,95.32
2023-01-04T22:27:05.585Z,94.89
2023-01-04T22:29:33.125Z,95.05
2023-01-04T22:32:01.811Z,94.89
2023-01-04T22:34:29.539Z,95.26
2023-01-04T22:36:57.270Z,95.75
2023-01-04T22:39:24.918Z,96.45
2023-01-04T22:41:52.376Z,96.53
2023-01-04T22:44:19.951Z,96.28
2023-01-04T22:46:48.105Z,96.07
2023-01-04T22:49:15.665Z,95.92
2023-01-04T22:51:43.139Z,96.12
2023-01-04T22:54:11.116Z,96.40
2023-01-04T22:56:38.645Z,96.14
2023-01-04T22:59:06.191Z,96.79
2023-01-04T23:01:34.547Z,97.22
2023-01-04T23:04:03.462Z,98.11
2023-01-04T23:06:32.679Z,98.54
2023-01-04T23:09:05.110Z,98.64
2023-01-04T23:11:35.147Z,98.45
2023-01-04T23:14:04.930Z,98.94
2023-01-04T23:16:33.703Z,99.09
2023-01-04T23:19:03.031Z,100.00
2023-01-04T23:21:31.894Z,100.00
2023-01-04T23:24:00.372Z,100.00
2023-01-04T23:26:31.129Z,100.00
2023-01-04T23:29:00.093Z,100.00
2023-01-04T23:31:31.273Z,100.00
2023-01-04T23:34:02.632Z,100.00
2023-01-04T23:36:35.325Z,100.00
2023-01-04T23:39:09.900Z,100.00
2023-01-04T23:41:47.185Z,100.00
2023-01-04T23:44:27.474Z,100.00
2023-01-04T23:47:01.624Z,100.00
2023-01-04T23:49:32.608Z,100.00
2023-01-04T23:52:01.212Z,100.00
2023-01-04T23:54:29.705Z,100.00
2023-01-04T23:56:57.746Z,100.00
2023-01-04T23:59:25.828Z,100.00
